sensor_id;sensor_type;location;lat;lon;timestamp;P1;durP1;ratioP1;P2;durP2;ratioP2
673;SDS011;319;48.764;9.174;2023-02-10T00:01:17;1.60;;;1.60;;
673;SDS011;319;48.764;9.174;2023-02-10T00:03:45;1.60;;;1.60;;
673;SDS011;319;48.764;9.174;2023-02-10T00:06:13;1.40;;;1.40;;
673;SDS011;319;48.764;9.174;2023-02-10T00:08:47;1.60;;;1.60;;
673;SDS011;319;48.764;9.174;2023-02-10T00:11:14;1.60;;;1.60;;
673;SDS011;319;48.764;9.174;2023-02-10T00:13:41;1.50;;;1.50;;
673;SDS011;319;48.764;9.174;2023-02-10T00:16:10;1.60;;;1.60;;
673;SDS011;319;48.764;9.174;2023-02-10T00:18:38;1.60;;;1.60;;
673;SDS011;319;48.764;9.174;2023-02-10T00:21:06;1.67;;;1.67;;
673;SDS011;319;48.764;9.174;2023-02-10T00:23:34;1.60;;;1.60;;
673;SDS011;319;48.764;9.174;2023-02-10T00:26:03;1.40;;;1.40;;
673;SDS011;319;48.764;9.174;2023-02-10T00:28:31;1.50;;;1.50;;
673;SDS011;319;48.764;9.174;2023-02-10T00:30:58;1.77;;;1.77;;
673;SDS011;319;48.764;9.174;2023-02-10T00:33:25;1.50;;;1.50;;
673;SDS011;319;48.764;9.174;2023-02-10T00:35:52;1.70;;;1.70;;
673;SDS011;319;48.764;9.174;2023-02-10T00:38:18;1.50;;;1.50;;
673;SDS011;319;48.764;9.174;2023-02-10T00:40:45;1.60;;;1.60;;
673;SDS011;319;48.764;9.174;2023-02-10T00:43:13;1.50;;;1.50;;
673;SDS011;319;48.764;9.174;2023-02-10T00:45:40;1.70;;;1.70;;
673;SDS011;319;48.764;9.174;2023-02-10T00:48:07;1.60;;;1.60;;
673;SDS011;319;48.764;9.174;2023-02-10T00:50:33;2.77;;;2.67;;
673;SDS011;319;48.764;9.174;2023-02-10T00:53:00;1.60;;;1.60;;
673;SDS011;319;48.764;9.174;2023-02-10T00:55:27;1.50;;;1.50;;
673;SDS011;319;48.764;9.174;2023-02-10T00:57:54;1.57;;;1.57;;
673;SDS011;319;48.764;9.174;2023-02-10T01:00:22;1.50;;;1.50;;
673;SDS011;319;48.764;9.174;2023-02-10T01:02:48;1.50;;;1.50;;
673;SDS011;319;48.764;9.174;2023-02-10T01:05:15;1.50;;;1.50;;
673;SDS011;319;48.764;9.174;2023-02-10T01:07:42;1.60;;;1.60;;
673;SDS011;319;48.764;9.174;2023-02-10T01:10:09;1.53;;;1.53;;
673;SDS011;319;48.764;9.174;2023-02-10T01:12:35;1.50;;;1.50;;
673;SDS011;319;48.764;9.174;2023-02-10T01:15:02;1.60;;;1.60;;
673;SDS011;319;48.764;9.174;2023-02-10T01:17:31;1.50;;;1.50;;
673;SDS011;319;48.764;9.174;2023-02-10T01:19:58;1.50;;;1.50;;
673;SDS011;319;48.764;9.174;2023-02-10T01:22:25;1.60;;;1.60;;
673;SDS011;319;48.764;9.174;2023-02-10T01:24:52;1.60;;;1.60;;
673;SDS011;319;48.764;9.174;2023-02-10T01:27:19;1.50;;;1.50;;
673;SDS011;319;48.764;9.174;2023-02-10T01:29:45;1.50;;;1.50;;
673;SDS011;319;48.764;9.174;2023-02-10T01:32:12;1.50;;;1.50;;
673;SDS011;319;48.764;9.174;2023-02-10T01:34:40;1.50;;;1.50;;
673;SDS011;319;48.764;9.174;2023-02-10T01:37:07;1.50;;;1.50;;
673;SDS011;319;48.764;9.174;2023-02-10T01:39:34;1.50;;;1.50;;
673;SDS011;319;48.764;9.174;2023-02-10T01:42:01;1.50;;;1.50;;
673;SDS011;319;48.764;9.174;2023-02-10T01:47:46;1.50;;;1.50;;
673;SDS011;319;48.764;9.174;2023-02-10T01:50:17;1.60;;;1.60;;
673;SDS011;319;48.764;9.174;2023-02-10T01:52:46;1.40;;;1.40;;
673;SDS011;319;48.764;9.174;2023-02-10T01:55:14;1.40;;;1.40;;
673;SDS011;319;48.764;9.174;2023-02-10T01:57:43;1.50;;;1.50;;
673;SDS011;319;48.764;9.174;2023-02-10T02:00:12;1.50;;;1.50;;
673;SDS011;319;48.764;9.174;2023-02-10T02:02:40;1.50;;;1.50;;
673;SDS011;319;48.764;9.174;2023-02-10T02:07:54;1.40;;;1.40;;
673;SDS011;319;48.764;9.174;2023-02-10T02:10:23;1.60;;;1.60;;
673;SDS011;319;48.764;9.174;2023-02-10T02:12:57;1.40;;;1.40;;
673;SDS011;319;48.764;9.174;2023-02-10T02:15:35;1.40;;;1.40;;
673;SDS011;319;48.764;9.174;2023-02-10T02:18:08;1.60;;;1.60;;
673;SDS011;319;48.764;9.174;2023-02-10T02:20:52;1.60;;;1.60;;
673;SDS011;319;48.764;9.174;2023-02-10T02:27:05;1.50;;;1.50;;
673;SDS011;319;48.764;9.174;2023-02-10T02:29:59;1.60;;;1.60;;
673;SDS011;319;48.764;9.174;2023-02-10T02:32:37;1.60;;;1.60;;
673;SDS011;319;48.764;9.174;2023-02-10T02:35:06;1.60;;;1.60;;
673;SDS011;319;48.764;9.174;2023-02-10T02:37:37;1.60;;;1.60;;
673;SDS011;319;48.764;9.174;2023-02-10T02:40:06;1.60;;;1.60;;
673;SDS011;319;48.764;9.174;2023-02-10T02:42:34;1.60;;;1.60;;
673;SDS011;319;48.764;9.174;2023-02-10T02:45:01;1.50;;;1.50;;
673;SDS011;319;48.764;9.174;2023-02-10T02:47:39;1.70;;;1.70;;
673;SDS011;319;48.764;9.174;2023-02-10T02:50:23;1.60;;;1.60;;
673;SDS011;319;48.764;9.174;2023-02-10T02:55:48;1.50;;;1.50;;
673;SDS011;319;48.764;9.174;2023-02-10T02:58:26;1.50;;;1.50;;
673;SDS011;319;48.764;9.174;2023-02-10T03:00:59;1.60;;;1.60;;
673;SDS011;319;48.764;9.174;2023-02-10T03:03:31;1.60;;;1.60;;
673;SDS011;319;48.764;9.174;2023-02-10T03:05:59;1.50;;;1.50;;
673;SDS011;319;48.764;9.174;2023-02-10T03:08:26;1.30;;;1.30;;
673;SDS011;319;48.764;9.174;2023-02-10T03:10:54;1.50;;;1.50;;
673;SDS011;319;48.764;9.174;2023-02-10T03:13:20;1.60;;;1.60;;
673;SDS011;319;48.764;9.174;2023-02-10T03:15:47;1.70;;;1.70;;
673;SDS011;319;48.764;9.174;2023-02-10T03:18:14;1.70;;;1.70;;
673;SDS011;319;48.764;9.174;2023-02-10T03:20:43;1.60;;;1.60;;
673;SDS011;319;48.764;9.174;2023-02-10T03:23:10;1.60;;;1.60;;
673;SDS011;319;48.764;9.174;2023-02-10T03:25:37;1.60;;;1.60;;
673;SDS011;319;48.764;9.174;2023-02-10T03:28:04;1.60;;;1.60;;
673;SDS011;319;48.764;9.174;2023-02-10T03:30:32;1.50;;;1.50;;
673;SDS011;319;48.764;9.174;2023-02-10T03:32:59;1.60;;;1.60;;
673;SDS011;319;48.764;9.174;2023-02-10T03:35:26;1.57;;;1.57;;
673;SDS011;319;48.764;9.174;2023-02-10T03:37:54;1.40;;;1.40;;
673;SDS011;319;48.764;9.174;2023-02-10T03:40:20;1.50;;;1.50;;
673;SDS011;319;48.764;9.174;2023-02-10T03:42:47;1.50;;;1.50;;
673;SDS011;319;48.764;9.174;2023-02-10T03:45:14;1.50;;;1.50;;
673;SDS011;319;48.764;9.174;2023-02-10T03:47:41;1.60;;;1.60;;
673;SDS011;319;48.764;9.174;2023-02-10T03:50:08;1.60;;;1.60;;
673;SDS011;319;48.764;9.174;2023-02-10T03:52:35;1.50;;;1.50;;
673;SDS011;319;48.764;9.174;2023-02-10T03:55:03;1.60;;;1.60;;
673;SDS011;319;48.764;9.174;2023-02-10T03:57:30;1.50;;;1.50;;
673;SDS011;319;48.764;9.174;2023-02-10T03:59:57;1.50;;;1.50;;
673;SDS011;319;48.764;9.174;2023-02-10T04:02:24;1.60;;;1.60;;
673;SDS011;319;48.764;9.174;2023-02-10T04:04:51;1.60;;;1.60;;
673;SDS011;319;48.764;9.174;2023-02-10T04:07:17;1.60;;;1.60;;
673;SDS011;319;48.764;9.174;2023-02-10T04:09:44;1.50;;;1.50;;
673;SDS011;319;48.764;9.174;2023-02-10T04:12:12;1.50;;;1.50;;
673;SDS011;319;48.764;9.174;2023-02-10T04:14:39;1.60;;;1.60;;
673;SDS011;319;48.764;9.174;2023-02-10T04:17:06;1.53;;;1.53;;
673;SDS011;319;48.764;9.174;2023-02-10T04:19:33;1.60;;;1.60;;
673;SDS011;319;48.764;9.174;2023-02-10T04:21:59;1.50;;;1.50;;
673;SDS011;319;48.764;9.174;2023-02-10T04:24:26;1.50;;;1.50;;
673;SDS011;319;48.764;9.174;2023-02-10T04:26:53;1.60;;;1.60;;
673;SDS011;319;48.764;9.174;2023-02-10T04:29:21;1.50;;;1.50;;
673;SDS011;319;48.764;9.174;2023-02-10T04:31:48;1.50;;;1.50;;
673;SDS011;319;48.764;9.174;2023-02-10T04:34:14;1.30;;;1.30;;
673;SDS011;319;48.764;9.174;2023-02-10T04:36:41;1.50;;;1.50;;
673;SDS011;319;48.764;9.174;2023-02-10T04:39:08;1.50;;;1.50;;
673;SDS011;319;48.764;9.174;2023-02-10T04:41:34;1.60;;;1.60;;
673;SDS011;319;48.764;9.174;2023-02-10T04:44:02;1.50;;;1.50;;
673;SDS011;319;48.764;9.174;2023-02-10T04:46:32;1.50;;;1.50;;
673;SDS011;319;48.764;9.174;2023-02-10T04:48:58;1.70;;;1.70;;
673;SDS011;319;48.764;9.174;2023-02-10T04:51:25;1.50;;;1.50;;
673;SDS011;319;48.764;9.174;2023-02-10T04:53:52;1.60;;;1.60;;
673;SDS011;319;48.764;9.174;2023-02-10T04:56:18;1.70;;;1.70;;
673;SDS011;319;48.764;9.174;2023-02-10T04:58:48;1.70;;;1.70;;
673;SDS011;319;48.764;9.174;2023-02-10T05:01:15;1.70;;;1.70;;
673;SDS011;319;48.764;9.174;2023-02-10T05:03:43;1.63;;;1.63;;
673;SDS011;319;48.764;9.174;2023-02-10T05:06:11;1.40;;;1.40;;
673;SDS011;319;48.764;9.174;2023-02-10T05:08:40;1.70;;;1.70;;
673;SDS011;319;48.764;9.174;2023-02-10T05:11:07;1.60;;;1.60;;
673;SDS011;319;48.764;9.174;2023-02-10T05:13:35;1.70;;;1.70;;
673;SDS011;319;48.764;9.174;2023-02-10T05:16:02;1.60;;;1.60;;
673;SDS011;319;48.764;9.174;2023-02-10T05:18:29;1.50;;;1.50;;
673;SDS011;319;48.764;9.174;2023-02-10T05:20:57;1.60;;;1.60;;
673;SDS011;319;48.764;9.174;2023-02-10T05:23:24;1.57;;;1.57;;
673;SDS011;319;48.764;9.174;2023-02-10T05:25:51;1.60;;;1.60;;
673;SDS011;319;48.764;9.174;2023-02-10T05:28:18;1.60;;;1.60;;
673;SDS011;319;48.764;9.174;2023-02-10T05:30:46;1.60;;;1.60;;
673;SDS011;319;48.764;9.174;2023-02-10T05:33:13;1.60;;;1.60;;
673;SDS011;319;48.764;9.174;2023-02-10T05:35:40;1.60;;;1.60;;
673;SDS011;319;48.764;9.174;2023-02-10T05:38:08;1.50;;;1.50;;
673;SDS011;319;48.764;9.174;2023-02-10T05:40:36;1.60;;;1.60;;
673;SDS011;319;48.764;9.174;2023-02-10T05:43:03;1.60;;;1.60;;
673;SDS011;319;48.764;9.174;2023-02-10T05:45:30;1.60;;;1.60;;
673;SDS011;319;48.764;9.174;2023-02-10T05:47:57;1.60;;;1.60;;
673;SDS011;319;48.764;9.174;2023-02-10T05:50:23;1.60;;;1.60;;
673;SDS011;319;48.764;9.174;2023-02-10T05:52:50;1.57;;;1.57;;
673;SDS011;319;48.764;9.174;2023-02-10T05:55:18;1.60;;;1.60;;
673;SDS011;319;48.764;9.174;2023-02-10T05:57:46;1.70;;;1.70;;
673;SDS011;319;48.764;9.174;2023-02-10T06:00:13;1.70;;;1.70;;
673;SDS011;319;48.764;9.174;2023-02-10T06:02:41;1.80;;;1.80;;
673;SDS011;319;48.764;9.174;2023-02-10T06:05:07;1.90;;;1.90;;
673;SDS011;319;48.764;9.174;2023-02-10T06:07:34;1.90;;;1.90;;
673;SDS011;319;48.764;9.174;2023-02-10T06:10:01;2.00;;;2.00;;
673;SDS011;319;48.764;9.174;2023-02-10T06:12:29;2.10;;;2.10;;
673;SDS011;319;48.764;9.174;2023-02-10T06:14:56;2.70;;;2.70;;
673;SDS011;319;48.764;9.174;2023-02-10T06:20:21;3.20;;;3.10;;
673;SDS011;319;48.764;9.174;2023-02-10T06:22:47;2.90;;;2.90;;
673;SDS011;319;48.764;9.174;2023-02-10T06:25:14;3.03;;;3.03;;
673;SDS011;319;48.764;9.174;2023-02-10T06:27:43;3.70;;;3.60;;
673;SDS011;319;48.764;9.174;2023-02-10T06:30:11;3.60;;;3.50;;
673;SDS011;319;48.764;9.174;2023-02-10T06:32:38;3.90;;;3.80;;
673;SDS011;319;48.764;9.174;2023-02-10T06:35:05;3.50;;;3.40;;
673;SDS011;319;48.764;9.174;2023-02-10T06:37:32;4.20;;;4.10;;
673;SDS011;319;48.764;9.174;2023-02-10T06:40:00;3.67;;;3.57;;
673;SDS011;319;48.764;9.174;2023-02-10T06:42:27;3.90;;;3.80;;
673;SDS011;319;48.764;9.174;2023-02-10T06:44:55;3.60;;;3.50;;
673;SDS011;319;48.764;9.174;2023-02-10T06:47:22;4.10;;;4.00;;
673;SDS011;319;48.764;9.174;2023-02-10T06:49:49;3.70;;;3.60;;
673;SDS011;319;48.764;9.174;2023-02-10T06:52:16;4.10;;;4.00;;
673;SDS011;319;48.764;9.174;2023-02-10T06:54:42;3.77;;;3.67;;
673;SDS011;319;48.764;9.174;2023-02-10T06:57:09;4.17;;;4.07;;
673;SDS011;319;48.764;9.174;2023-02-10T06:59:36;3.70;;;3.60;;
673;SDS011;319;48.764;9.174;2023-02-10T07:02:04;4.10;;;4.00;;
673;SDS011;319;48.764;9.174;2023-02-10T07:04:34;3.40;;;3.30;;
673;SDS011;319;48.764;9.174;2023-02-10T07:07:01;3.30;;;3.20;;
673;SDS011;319;48.764;9.174;2023-02-10T07:09:28;3.60;;;3.50;;
673;SDS011;319;48.764;9.174;2023-02-10T07:11:55;3.80;;;3.70;;
673;SDS011;319;48.764;9.174;2023-02-10T07:14:24;3.30;;;3.20;;
673;SDS011;319;48.764;9.174;2023-02-10T07:16:51;3.70;;;3.60;;
673;SDS011;319;48.764;9.174;2023-02-10T07:19:19;3.40;;;3.30;;
673;SDS011;319;48.764;9.174;2023-02-10T07:21:46;4.20;;;4.10;;
673;SDS011;319;48.764;9.174;2023-02-10T07:24:12;4.20;;;4.10;;
673;SDS011;319;48.764;9.174;2023-02-10T07:26:39;3.70;;;3.60;;
673;SDS011;319;48.764;9.174;2023-02-10T07:29:06;3.37;;;3.27;;
673;SDS011;319;48.764;9.174;2023-02-10T07:31:33;4.07;;;3.97;;
673;SDS011;319;48.764;9.174;2023-02-10T07:34:00;4.20;;;4.10;;
673;SDS011;319;48.764;9.174;2023-02-10T07:36:28;3.83;;;3.73;;
673;SDS011;319;48.764;9.174;2023-02-10T07:38:55;3.50;;;3.40;;
673;SDS011;319;48.764;9.174;2023-02-10T07:41:22;3.63;;;3.53;;
673;SDS011;319;48.764;9.174;2023-02-10T07:43:49;3.60;;;3.50;;
673;SDS011;319;48.764;9.174;2023-02-10T07:46:15;3.80;;;3.70;;
673;SDS011;319;48.764;9.174;2023-02-10T07:48:42;3.50;;;3.40;;
673;SDS011;319;48.764;9.174;2023-02-10T07:51:09;3.50;;;3.40;;
673;SDS011;319;48.764;9.174;2023-02-10T07:53:37;3.90;;;3.80;;
673;SDS011;319;48.764;9.174;2023-02-10T07:56:04;4.17;;;4.07;;
673;SDS011;319;48.764;9.174;2023-02-10T07:58:31;3.60;;;3.50;;
673;SDS011;319;48.764;9.174;2023-02-10T08:00:58;3.20;;;3.10;;
673;SDS011;319;48.764;9.174;2023-02-10T08:03:25;3.33;;;3.23;;
673;SDS011;319;48.764;9.174;2023-02-10T08:05:51;3.70;;;3.60;;
673;SDS011;319;48.764;9.174;2023-02-10T08:08:18;3.60;;;3.50;;
673;SDS011;319;48.764;9.174;2023-02-10T08:10:46;3.97;;;3.87;;
673;SDS011;319;48.764;9.174;2023-02-10T08:13:13;4.20;;;4.10;;
673;SDS011;319;48.764;9.174;2023-02-10T08:15:40;3.77;;;3.67;;
673;SDS011;319;48.764;9.174;2023-02-10T08:18:07;3.70;;;3.60;;
673;SDS011;319;48.764;9.174;2023-02-10T08:20:33;4.10;;;4.00;;
673;SDS011;319;48.764;9.174;2023-02-10T08:23:00;3.80;;;3.70;;
673;SDS011;319;48.764;9.174;2023-02-10T08:25:27;4.00;;;3.90;;
673;SDS011;319;48.764;9.174;2023-02-10T08:27:56;3.60;;;3.50;;
673;SDS011;319;48.764;9.174;2023-02-10T08:30:23;3.90;;;3.80;;
673;SDS011;319;48.764;9.174;2023-02-10T08:32:51;3.97;;;3.87;;
673;SDS011;319;48.764;9.174;2023-02-10T08:35:18;4.00;;;3.90;;
673;SDS011;319;48.764;9.174;2023-02-10T08:37:44;4.00;;;3.90;;
673;SDS011;319;48.764;9.174;2023-02-10T08:40:11;3.80;;;3.70;;
673;SDS011;319;48.764;9.174;2023-02-10T08:42:38;3.40;;;3.30;;
673;SDS011;319;48.764;9.174;2023-02-10T08:45:06;3.23;;;3.13;;
673;SDS011;319;48.764;9.174;2023-02-10T08:47:34;3.63;;;3.53;;
673;SDS011;319;48.764;9.174;2023-02-10T08:50:01;3.60;;;3.50;;
673;SDS011;319;48.764;9.174;2023-02-10T08:52:28;3.43;;;3.33;;
673;SDS011;319;48.764;9.174;2023-02-10T08:54:55;2.30;;;2.30;;
673;SDS011;319;48.764;9.174;2023-02-10T08:57:21;1.30;;;1.30;;
673;SDS011;319;48.764;9.174;2023-02-10T08:59:48;1.57;;;1.57;;
673;SDS011;319;48.764;9.174;2023-02-10T09:02:16;1.40;;;1.40;;
673;SDS011;319;48.764;9.174;2023-02-10T09:04:43;1.30;;;1.30;;
673;SDS011;319;48.764;9.174;2023-02-10T09:07:10;1.30;;;1.30;;
673;SDS011;319;48.764;9.174;2023-02-10T09:09:39;1.40;;;1.40;;
673;SDS011;319;48.764;9.174;2023-02-10T09:12:08;1.40;;;1.40;;
673;SDS011;319;48.764;9.174;2023-02-10T09:14:36;1.90;;;1.90;;
673;SDS011;319;48.764;9.174;2023-02-10T09:17:03;4.33;;;4.23;;
673;SDS011;319;48.764;9.174;2023-02-10T09:19:34;1.20;;;1.20;;
673;SDS011;319;48.764;9.174;2023-02-10T09:22:01;1.30;;;1.30;;
673;SDS011;319;48.764;9.174;2023-02-10T09:24:28;1.20;;;1.20;;
673;SDS011;319;48.764;9.174;2023-02-10T09:26:55;1.30;;;1.30;;
673;SDS011;319;48.764;9.174;2023-02-10T09:29:22;1.30;;;1.30;;
673;SDS011;319;48.764;9.174;2023-02-10T09:31:49;1.30;;;1.30;;
673;SDS011;319;48.764;9.174;2023-02-10T09:34:16;1.20;;;1.20;;
673;SDS011;319;48.764;9.174;2023-02-10T09:36:44;1.30;;;1.30;;
673;SDS011;319;48.764;9.174;2023-02-10T09:39:11;1.10;;;1.10;;
673;SDS011;319;48.764;9.174;2023-02-10T09:41:44;1.23;;;1.23;;
673;SDS011;319;48.764;9.174;2023-02-10T09:44:17;1.40;;;1.40;;
673;SDS011;319;48.764;9.174;2023-02-10T09:46:47;1.47;;;1.47;;
673;SDS011;319;48.764;9.174;2023-02-10T09:49:27;1.30;;;1.30;;
673;SDS011;319;48.764;9.174;2023-02-10T09:52:12;1.20;;;1.20;;
673;SDS011;319;48.764;9.174;2023-02-10T09:54:45;1.40;;;1.40;;
673;SDS011;319;48.764;9.174;2023-02-10T09:57:13;1.30;;;1.30;;
673;SDS011;319;48.764;9.174;2023-02-10T09:59:42;1.40;;;1.40;;
673;SDS011;319;48.764;9.174;2023-02-10T10:02:12;1.30;;;1.30;;
673;SDS011;319;48.764;9.174;2023-02-10T10:04:43;2.70;;;2.70;;
673;SDS011;319;48.764;9.174;2023-02-10T10:07:13;2.90;;;2.87;;
673;SDS011;319;48.764;9.174;2023-02-10T10:09:50;1.83;;;1.83;;
673;SDS011;319;48.764;9.174;2023-02-10T10:12:19;4.30;;;4.20;;
673;SDS011;319;48.764;9.174;2023-02-10T10:14:46;1.30;;;1.30;;
673;SDS011;319;48.764;9.174;2023-02-10T10:17:27;1.23;;;1.23;;
673;SDS011;319;48.764;9.174;2023-02-10T10:20:08;2.57;;;2.57;;
673;SDS011;319;48.764;9.174;2023-02-10T10:22:49;1.60;;;1.60;;
673;SDS011;319;48.764;9.174;2023-02-10T10:25:22;1.40;;;1.40;;
673;SDS011;319;48.764;9.174;2023-02-10T10:28:08;1.30;;;1.30;;
673;SDS011;319;48.764;9.174;2023-02-10T10:30:44;1.30;;;1.30;;
673;SDS011;319;48.764;9.174;2023-02-10T10:33:20;1.70;;;1.70;;
673;SDS011;319;48.764;9.174;2023-02-10T10:35:49;2.50;;;2.50;;
673;SDS011;319;48.764;9.174;2023-02-10T10:38:19;2.50;;;2.50;;
673;SDS011;319;48.764;9.174;2023-02-10T10:40:48;1.70;;;1.70;;
673;SDS011;319;48.764;9.174;2023-02-10T10:43:20;1.47;;;1.47;;
673;SDS011;319;48.764;9.174;2023-02-10T10:45:51;1.40;;;1.40;;
673;SDS011;319;48.764;9.174;2023-02-10T10:48:22;1.30;;;1.30;;
673;SDS011;319;48.764;9.174;2023-02-10T10:50:52;1.20;;;1.20;;
673;SDS011;319;48.764;9.174;2023-02-10T10:53:26;1.30;;;1.30;;
673;SDS011;319;48.764;9.174;2023-02-10T10:56:03;1.20;;;1.20;;
673;SDS011;319;48.764;9.174;2023-02-10T10:58:35;1.23;;;1.23;;
673;SDS011;319;48.764;9.174;2023-02-10T11:01:04;2.00;;;2.00;;
673;SDS011;319;48.764;9.174;2023-02-10T11:03:31;1.70;;;1.70;;
673;SDS011;319;48.764;9.174;2023-02-10T11:06:00;1.90;;;1.90;;
673;SDS011;319;48.764;9.174;2023-02-10T11:08:34;2.20;;;2.20;;
673;SDS011;319;48.764;9.174;2023-02-10T11:11:06;2.60;;;2.60;;
673;SDS011;319;48.764;9.174;2023-02-10T11:13:35;2.50;;;2.50;;
673;SDS011;319;48.764;9.174;2023-02-10T11:16:04;2.80;;;2.80;;
673;SDS011;319;48.764;9.174;2023-02-10T11:18:36;3.30;;;3.20;;
673;SDS011;319;48.764;9.174;2023-02-10T11:21:04;2.70;;;2.70;;
673;SDS011;319;48.764;9.174;2023-02-10T11:23:40;3.13;;;3.03;;
673;SDS011;319;48.764;9.174;2023-02-10T11:26:17;3.80;;;3.70;;
673;SDS011;319;48.764;9.174;2023-02-10T11:28:45;3.13;;;3.03;;
673;SDS011;319;48.764;9.174;2023-02-10T11:31:19;3.20;;;3.10;;
673;SDS011;319;48.764;9.174;2023-02-10T11:33:54;3.70;;;3.60;;
673;SDS011;319;48.764;9.174;2023-02-10T11:36:28;3.70;;;3.60;;
673;SDS011;319;48.764;9.174;2023-02-10T11:39:02;3.27;;;3.17;;
673;SDS011;319;48.764;9.174;2023-02-10T11:41:31;3.50;;;3.40;;
673;SDS011;319;48.764;9.174;2023-02-10T11:44:00;3.07;;;3.07;;
673;SDS011;319;48.764;9.174;2023-02-10T11:46:28;3.20;;;3.10;;
673;SDS011;319;48.764;9.174;2023-02-10T11:48:56;5.90;;;5.80;;
673;SDS011;319;48.764;9.174;2023-02-10T11:51:25;4.17;;;4.07;;
673;SDS011;319;48.764;9.174;2023-02-10T11:53:53;2.20;;;2.20;;
673;SDS011;319;48.764;9.174;2023-02-10T11:56:23;3.90;;;3.80;;
673;SDS011;319;48.764;9.174;2023-02-10T11:59:07;3.40;;;3.30;;
673;SDS011;319;48.764;9.174;2023-02-10T12:01:46;3.17;;;3.07;;
673;SDS011;319;48.764;9.174;2023-02-10T12:07:10;3.80;;;3.70;;
673;SDS011;319;48.764;9.174;2023-02-10T12:09:48;3.50;;;3.40;;
673;SDS011;319;48.764;9.174;2023-02-10T12:12:24;3.60;;;3.50;;
673;SDS011;319;48.764;9.174;2023-02-10T12:14:57;3.93;;;3.83;;
673;SDS011;319;48.764;9.174;2023-02-10T12:17:33;3.60;;;3.50;;
673;SDS011;319;48.764;9.174;2023-02-10T12:20:13;3.20;;;3.10;;
673;SDS011;319;48.764;9.174;2023-02-10T12:23:03;3.73;;;3.63;;
673;SDS011;319;48.764;9.174;2023-02-10T12:25:41;4.10;;;4.00;;
673;SDS011;319;48.764;9.174;2023-02-10T12:28:19;3.80;;;3.70;;
673;SDS011;319;48.764;9.174;2023-02-10T12:30:54;3.20;;;3.10;;
673;SDS011;319;48.764;9.174;2023-02-10T12:33:35;3.80;;;3.70;;
673;SDS011;319;48.764;9.174;2023-02-10T12:36:11;3.90;;;3.80;;
673;SDS011;319;48.764;9.174;2023-02-10T12:38:48;3.90;;;3.80;;
673;SDS011;319;48.764;9.174;2023-02-10T12:41:23;3.73;;;3.63;;
673;SDS011;319;48.764;9.174;2023-02-10T12:44:05;4.60;;;4.50;;
673;SDS011;319;48.764;9.174;2023-02-10T12:46:43;4.30;;;4.20;;
673;SDS011;319;48.764;9.174;2023-02-10T12:49:24;3.53;;;3.43;;
673;SDS011;319;48.764;9.174;2023-02-10T12:52:02;4.30;;;4.20;;
673;SDS011;319;48.764;9.174;2023-02-10T12:54:36;4.10;;;4.00;;
673;SDS011;319;48.764;9.174;2023-02-10T12:57:09;4.27;;;4.17;;
673;SDS011;319;48.764;9.174;2023-02-10T12:59:45;3.70;;;3.60;;
673;SDS011;319;48.764;9.174;2023-02-10T13:02:18;4.30;;;4.20;;
673;SDS011;319;48.764;9.174;2023-02-10T13:04:50;3.70;;;3.60;;
673;SDS011;319;48.764;9.174;2023-02-10T13:07:25;3.50;;;3.40;;
673;SDS011;319;48.764;9.174;2023-02-10T13:09:59;3.33;;;3.23;;
673;SDS011;319;48.764;9.174;2023-02-10T13:12:34;4.10;;;4.00;;
673;SDS011;319;48.764;9.174;2023-02-10T13:15:06;4.33;;;4.23;;
673;SDS011;319;48.764;9.174;2023-02-10T13:17:41;3.80;;;3.70;;
673;SDS011;319;48.764;9.174;2023-02-10T13:20:16;3.70;;;3.60;;
673;SDS011;319;48.764;9.174;2023-02-10T13:22:51;3.80;;;3.70;;
673;SDS011;319;48.764;9.174;2023-02-10T13:25:25;3.93;;;3.83;;
673;SDS011;319;48.764;9.174;2023-02-10T13:28:01;3.23;;;3.13;;
673;SDS011;319;48.764;9.174;2023-02-10T13:30:52;3.90;;;3.80;;
673;SDS011;319;48.764;9.174;2023-02-10T13:33:31;3.63;;;3.53;;
673;SDS011;319;48.764;9.174;2023-02-10T13:36:05;3.80;;;3.70;;
673;SDS011;319;48.764;9.174;2023-02-10T13:38:39;3.27;;;3.17;;
673;SDS011;319;48.764;9.174;2023-02-10T13:41:15;4.00;;;3.90;;
673;SDS011;319;48.764;9.174;2023-02-10T13:44:15;4.27;;;4.17;;
673;SDS011;319;48.764;9.174;2023-02-10T13:46:57;3.50;;;3.40;;
673;SDS011;319;48.764;9.174;2023-02-10T13:49:37;3.60;;;3.50;;
673;SDS011;319;48.764;9.174;2023-02-10T13:52:14;3.20;;;3.10;;
673;SDS011;319;48.764;9.174;2023-02-10T13:54:51;2.80;;;2.80;;
673;SDS011;319;48.764;9.174;2023-02-10T13:57:22;3.40;;;3.30;;
673;SDS011;319;48.764;9.174;2023-02-10T13:59:50;3.20;;;3.10;;
673;SDS011;319;48.764;9.174;2023-02-10T14:02:20;3.80;;;3.70;;
673;SDS011;319;48.764;9.174;2023-02-10T14:04:51;3.60;;;3.50;;
673;SDS011;319;48.764;9.174;2023-02-10T14:07:31;3.50;;;3.40;;
673;SDS011;319;48.764;9.174;2023-02-10T14:10:06;3.80;;;3.70;;
673;SDS011;319;48.764;9.174;2023-02-10T14:12:53;3.80;;;3.70;;
673;SDS011;319;48.764;9.174;2023-02-10T14:15:22;3.90;;;3.80;;
673;SDS011;319;48.764;9.174;2023-02-10T14:17:57;3.50;;;3.40;;
673;SDS011;319;48.764;9.174;2023-02-10T14:20:27;3.73;;;3.63;;
673;SDS011;319;48.764;9.174;2023-02-10T14:22:57;3.50;;;3.40;;
673;SDS011;319;48.764;9.174;2023-02-10T14:25:28;3.67;;;3.57;;
673;SDS011;319;48.764;9.174;2023-02-10T14:27:58;3.40;;;3.30;;
673;SDS011;319;48.764;9.174;2023-02-10T14:30:31;3.70;;;3.60;;
673;SDS011;319;48.764;9.174;2023-02-10T14:33:04;4.00;;;3.90;;
673;SDS011;319;48.764;9.174;2023-02-10T14:35:32;3.60;;;3.50;;
673;SDS011;319;48.764;9.174;2023-02-10T14:38:02;3.50;;;3.40;;
673;SDS011;319;48.764;9.174;2023-02-10T14:40:30;3.37;;;3.27;;
673;SDS011;319;48.764;9.174;2023-02-10T14:42:59;3.50;;;3.40;;
673;SDS011;319;48.764;9.174;2023-02-10T14:45:27;3.33;;;3.23;;
673;SDS011;319;48.764;9.174;2023-02-10T14:47:55;3.30;;;3.20;;
673;SDS011;319;48.764;9.174;2023-02-10T14:50:26;3.60;;;3.50;;
673;SDS011;319;48.764;9.174;2023-02-10T14:52:54;3.00;;;2.90;;
673;SDS011;319;48.764;9.174;2023-02-10T14:55:22;3.30;;;3.20;;
673;SDS011;319;48.764;9.174;2023-02-10T14:57:50;3.03;;;3.00;;
673;SDS011;319;48.764;9.174;2023-02-10T15:00:18;2.43;;;2.43;;
673;SDS011;319;48.764;9.174;2023-02-10T15:02:46;2.40;;;2.40;;
673;SDS011;319;48.764;9.174;2023-02-10T15:05:16;2.40;;;2.40;;
673;SDS011;319;48.764;9.174;2023-02-10T15:07:47;2.60;;;2.60;;
673;SDS011;319;48.764;9.174;2023-02-10T15:10:19;2.53;;;2.53;;
673;SDS011;319;48.764;9.174;2023-02-10T15:12:52;2.70;;;2.70;;
673;SDS011;319;48.764;9.174;2023-02-10T15:15:22;3.20;;;3.10;;
673;SDS011;319;48.764;9.174;2023-02-10T15:18:05;2.80;;;2.80;;
673;SDS011;319;48.764;9.174;2023-02-10T15:20:35;2.90;;;2.90;;
673;SDS011;319;48.764;9.174;2023-02-10T15:23:04;3.70;;;3.60;;
673;SDS011;319;48.764;9.174;2023-02-10T15:25:38;3.83;;;3.73;;
673;SDS011;319;48.764;9.174;2023-02-10T15:28:18;3.80;;;3.70;;
673;SDS011;319;48.764;9.174;2023-02-10T15:31:01;4.10;;;4.00;;
673;SDS011;319;48.764;9.174;2023-02-10T15:33:32;4.03;;;3.93;;
673;SDS011;319;48.764;9.174;2023-02-10T15:36:09;4.20;;;4.10;;
673;SDS011;319;48.764;9.174;2023-02-10T15:38:49;3.23;;;3.13;;
673;SDS011;319;48.764;9.174;2023-02-10T15:44:27;2.90;;;2.90;;
673;SDS011;319;48.764;9.174;2023-02-10T15:50:07;3.30;;;3.20;;
673;SDS011;319;48.764;9.174;2023-02-10T15:52:38;3.70;;;3.60;;
673;SDS011;319;48.764;9.174;2023-02-10T15:55:13;3.70;;;3.60;;
673;SDS011;319;48.764;9.174;2023-02-10T15:57:42;3.93;;;3.83;;
673;SDS011;319;48.764;9.174;2023-02-10T16:00:19;3.80;;;3.70;;
673;SDS011;319;48.764;9.174;2023-02-10T16:02:49;2.70;;;2.70;;
673;SDS011;319;48.764;9.174;2023-02-10T16:05:16;3.17;;;3.07;;
673;SDS011;319;48.764;9.174;2023-02-10T16:07:43;1.50;;;1.50;;
673;SDS011;319;48.764;9.174;2023-02-10T16:10:16;1.60;;;1.60;;
673;SDS011;319;48.764;9.174;2023-02-10T16:12:46;1.70;;;1.70;;
673;SDS011;319;48.764;9.174;2023-02-10T16:15:14;2.93;;;2.93;;
673;SDS011;319;48.764;9.174;2023-02-10T16:17:42;4.43;;;4.33;;
673;SDS011;319;48.764;9.174;2023-02-10T16:20:14;2.40;;;2.40;;
673;SDS011;319;48.764;9.174;2023-02-10T16:22:43;3.53;;;3.43;;
673;SDS011;319;48.764;9.174;2023-02-10T16:25:11;1.40;;;1.40;;
673;SDS011;319;48.764;9.174;2023-02-10T16:27:39;1.40;;;1.40;;